Time;durP1;ratioP1;P1;durP2;ratioP2;P2;SDS_P1;SDS_P2;PMS_P1;PMS_P2;Temp;Humidity;BMP_temperature;BMP_pressure;BME280_temperature;BME280_humidity;BME280_pressure;Samples;Min_cycle;Max_cycle;Signal;HPM_P1;HPM_P2
2021/03/14 00:01:43;;;;;;;5.35;2.38;;;;;;;;;;5114434;28;20264;-63
2021/03/14 00:04:10;;;;;;;5.78;2.15;;;;;;;;;;5114351;28;20769;-63
2021/03/14 00:06:37;;;;;;;3.70;1.60;;;;;;;;;;5114147;28;20675;-63
2021/03/14 00:09:04;;;;;;;6.18;2.20;;;;;;;;;;5114439;28;20630;-62
2021/03/14 00:11:31;;;;;;;3.38;1.90;;;;;;;;;;5114361;28;20200;-63
2021/03/14 00:13:57;;;;;;;6.28;2.40;;;;;;;;;;5114213;28;20367;-63
2021/03/14 00:16:25;;;;;;;5.68;2.75;;;;;;;;;;5114327;28;20214;-63
2021/03/14 00:18:52;;;;;;;6.10;2.10;;;;;;;;;;5113963;28;20196;-63
2021/03/14 00:21:19;;;;;;;2.80;2.53;;;;;;;;;;5114174;28;20192;-62
2021/03/14 00:23:46;;;;;;;3.55;2.00;;;;;;;;;;5131792;28;20244;-64
2021/03/14 00:26:13;;;;;;;2.35;1.70;;;;;;;;;;5141688;28;20200;-64
2021/03/14 00:28:40;;;;;;;4.70;2.40;;;;;;;;;;5139646;28;20233;-63
2021/03/14 00:31:06;;;;;;;4.75;2.67;;;;;;;;;;5123719;28;20199;-63
2021/03/14 00:33:34;;;;;;;2.55;1.85;;;;;;;;;;5118875;28;20216;-62
2021/03/14 00:36:01;;;;;;;5.22;1.60;;;;;;;;;;5118263;28;20199;-62
2021/03/14 00:38:28;;;;;;;4.40;1.00;;;;;;;;;;5118062;28;20218;-63
2021/03/14 00:40:54;;;;;;;2.15;0.82;;;;;;;;;;5117962;28;20203;-62
2021/03/14 00:43:21;;;;;;;1.70;0.63;;;;;;;;;;5117733;28;20195;-62
2021/03/14 00:45:48;;;;;;;3.92;0.82;;;;;;;;;;5119995;28;20206;-63
2021/03/14 00:48:15;;;;;;;2.50;0.60;;;;;;;;;;5118565;28;20629;-62
2021/03/14 00:50:43;;;;;;;2.25;0.77;;;;;;;;;;5119759;28;20226;-62
2021/03/14 00:53:10;;;;;;;0.90;0.60;;;;;;;;;;5125335;28;20202;-63
2021/03/14 00:55:38;;;;;;;0.60;0.50;;;;;;;;;;5125242;28;20211;-62
2021/03/14 00:58:06;;;;;;;1.40;0.90;;;;;;;;;;5123125;28;20203;-61
2021/03/14 01:00:33;;;;;;;0.73;0.60;;;;;;;;;;5123447;28;20552;-62
2021/03/14 01:02:59;;;;;;;1.08;0.73;;;;;;;;;;5120925;28;20240;-63
2021/03/14 01:05:26;;;;;;;0.98;0.80;;;;;;;;;;5119252;28;20710;-63
2021/03/14 01:07:54;;;;;;;2.10;0.90;;;;;;;;;;5118236;28;20249;-62
2021/03/14 01:10:21;;;;;;;2.05;0.85;;;;;;;;;;5117486;28;20671;-62
2021/03/14 01:12:47;;;;;;;2.45;1.17;;;;;;;;;;5117316;28;20200;-63
2021/03/14 01:15:15;;;;;;;1.90;0.90;;;;;;;;;;5117568;28;20220;-62
2021/03/14 01:17:42;;;;;;;1.75;1.05;;;;;;;;;;5119807;28;20199;-62
2021/03/14 01:20:10;;;;;;;2.30;1.73;;;;;;;;;;5134118;28;20199;-63
2021/03/14 01:22:37;;;;;;;1.60;1.50;;;;;;;;;;5123184;28;20206;-63
2021/03/14 01:25:05;;;;;;;3.05;1.60;;;;;;;;;;5118277;27;20220;-62
2021/03/14 01:27:32;;;;;;;5.03;1.60;;;;;;;;;;5118857;28;20249;-61
2021/03/14 01:29:59;;;;;;;1.85;1.70;;;;;;;;;;5117586;28;20199;-63
2021/03/14 01:32:25;;;;;;;2.85;1.70;;;;;;;;;;5118983;28;20203;-63
2021/03/14 01:34:52;;;;;;;2.85;1.55;;;;;;;;;;5117795;28;20215;-63
2021/03/14 01:37:19;;;;;;;4.35;1.88;;;;;;;;;;5117095;28;20223;-63
2021/03/14 01:39:46;;;;;;;3.38;1.88;;;;;;;;;;5116904;27;20204;-63
2021/03/14 01:42:13;;;;;;;2.97;2.00;;;;;;;;;;5117968;28;20203;-63
2021/03/14 01:44:43;;;;;;;4.05;1.58;;;;;;;;;;5117011;28;20733;-63
2021/03/14 01:47:11;;;;;;;3.30;1.73;;;;;;;;;;5116417;28;20195;-64
2021/03/14 01:49:38;;;;;;;2.05;1.63;;;;;;;;;;5116704;28;20226;-63
2021/03/14 01:52:06;;;;;;;2.00;1.67;;;;;;;;;;5116446;28;20196;-63
2021/03/14 01:54:33;;;;;;;2.63;2.33;;;;;;;;;;5116404;28;20307;-63
2021/03/14 01:56:59;;;;;;;2.13;1.85;;;;;;;;;;5116717;28;20225;-62
2021/03/14 01:59:28;;;;;;;1.95;1.85;;;;;;;;;;5116583;28;20200;-62
2021/03/14 02:01:55;;;;;;;1.85;1.70;;;;;;;;;;5116683;28;20200;-63
2021/03/14 02:04:21;;;;;;;3.60;2.25;;;;;;;;;;5116150;28;20264;-63
2021/03/14 02:06:48;;;;;;;2.60;2.40;;;;;;;;;;5116628;28;20207;-63
2021/03/14 02:09:15;;;;;;;1.77;1.67;;;;;;;;;;5116235;28;20219;-62
2021/03/14 02:11:44;;;;;;;6.35;2.50;;;;;;;;;;5116326;28;20206;-63
2021/03/14 02:14:11;;;;;;;2.95;2.50;;;;;;;;;;5116410;28;20340;-63
2021/03/14 02:16:42;;;;;;;2.83;2.25;;;;;;;;;;5116190;27;20195;-64
2021/03/14 02:19:11;;;;;;;3.85;2.50;;;;;;;;;;5116348;28;20180;-63
2021/03/14 02:21:39;;;;;;;3.90;2.22;;;;;;;;;;5116338;28;20195;-62
2021/03/14 02:24:07;;;;;;;3.00;2.38;;;;;;;;;;5116178;28;20231;-63
2021/03/14 02:26:36;;;;;;;2.85;2.45;;;;;;;;;;5115935;28;20788;-63
2021/03/14 02:29:04;;;;;;;3.30;2.97;;;;;;;;;;5115607;28;20216;-64
2021/03/14 02:31:31;;;;;;;1.80;1.70;;;;;;;;;;5116043;28;20210;-63
2021/03/14 02:34:01;;;;;;;3.92;1.65;;;;;;;;;;5116042;28;20624;-64
2021/03/14 02:36:28;;;;;;;2.15;1.48;;;;;;;;;;5115874;28;20196;-64
2021/03/14 02:38:54;;;;;;;2.20;1.25;;;;;;;;;;5115469;28;20728;-64
2021/03/14 02:41:22;;;;;;;1.98;1.13;;;;;;;;;;5115621;28;20233;-62
2021/03/14 02:43:49;;;;;;;1.45;1.35;;;;;;;;;;5115584;28;20224;-63
2021/03/14 02:46:17;;;;;;;1.55;1.20;;;;;;;;;;5114202;28;20208;-63
2021/03/14 02:48:44;;;;;;;2.20;1.38;;;;;;;;;;5115930;28;20216;-63
2021/03/14 02:51:11;;;;;;;2.35;1.30;;;;;;;;;;5115224;28;20257;-63
2021/03/14 02:53:38;;;;;;;2.13;1.40;;;;;;;;;;5115329;28;20284;-63
2021/03/14 02:56:06;;;;;;;2.70;1.70;;;;;;;;;;5115161;28;20668;-62
2021/03/14 02:58:33;;;;;;;1.92;1.20;;;;;;;;;;5115023;28;20204;-62
2021/03/14 03:01:00;;;;;;;3.20;1.98;;;;;;;;;;5115164;28;20200;-63
2021/03/14 03:03:27;;;;;;;2.88;1.80;;;;;;;;;;5115688;28;20578;-62
2021/03/14 03:05:57;;;;;;;2.90;1.90;;;;;;;;;;5115203;28;20208;-63
2021/03/14 03:08:24;;;;;;;2.42;2.00;;;;;;;;;;5115326;28;20204;-63
2021/03/14 03:10:51;;;;;;;5.60;2.78;;;;;;;;;;5117441;28;20204;-63
2021/03/14 03:13:18;;;;;;;2.33;2.03;;;;;;;;;;5121313;28;20195;-64
2021/03/14 03:15:46;;;;;;;4.45;3.42;;;;;;;;;;5118205;28;20781;-62
2021/03/14 03:18:13;;;;;;;2.70;2.50;;;;;;;;;;5120615;28;20560;-62
2021/03/14 03:20:41;;;;;;;4.95;2.70;;;;;;;;;;5118972;27;20199;-63
2021/03/14 03:23:08;;;;;;;2.15;1.67;;;;;;;;;;5116809;28;20324;-63
2021/03/14 03:25:35;;;;;;;6.20;2.20;;;;;;;;;;5118425;28;20203;-64
2021/03/14 03:28:02;;;;;;;2.53;1.58;;;;;;;;;;5116784;28;20351;-63
2021/03/14 03:30:29;;;;;;;4.63;1.77;;;;;;;;;;5116293;28;20252;-64
2021/03/14 03:32:56;;;;;;;3.50;1.70;;;;;;;;;;5117016;28;20203;-63
2021/03/14 03:35:25;;;;;;;3.97;1.50;;;;;;;;;;5117820;27;20216;-67
2021/03/14 03:37:53;;;;;;;1.25;0.93;;;;;;;;;;5124808;28;20203;-66
2021/03/14 03:40:22;;;;;;;1.10;1.00;;;;;;;;;;5124502;28;20195;-67
2021/03/14 03:42:53;;;;;;;1.35;1.10;;;;;;;;;;5127201;28;20221;-64
2021/03/14 03:45:21;;;;;;;1.27;1.10;;;;;;;;;;5125374;28;20224;-63
2021/03/14 03:47:47;;;;;;;2.70;1.15;;;;;;;;;;5120228;28;20203;-63
2021/03/14 03:50:16;;;;;;;1.30;1.20;;;;;;;;;;5125545;28;20199;-63
2021/03/14 03:52:43;;;;;;;4.95;1.55;;;;;;;;;;5126878;28;20195;-63
2021/03/14 03:55:12;;;;;;;1.70;1.20;;;;;;;;;;5127622;28;20573;-63
2021/03/14 03:57:40;;;;;;;3.40;1.73;;;;;;;;;;5127019;28;20663;-63
2021/03/14 04:00:09;;;;;;;2.38;1.42;;;;;;;;;;5128739;28;20656;-64
2021/03/14 04:02:36;;;;;;;4.20;1.63;;;;;;;;;;5128695;28;20211;-64
2021/03/14 04:07:51;;;;;;;4.20;1.92;;;;;;;;;;5128035;27;20547;-64
2021/03/14 04:10:19;;;;;;;2.78;1.77;;;;;;;;;;5126883;28;20222;-65
2021/03/14 04:12:47;;;;;;;3.50;2.20;;;;;;;;;;5118841;28;20200;-64
2021/03/14 04:15:15;;;;;;;4.95;2.40;;;;;;;;;;5127725;28;20640;-65
2021/03/14 04:17:42;;;;;;;5.57;1.98;;;;;;;;;;5128456;28;20664;-64
2021/03/14 04:20:11;;;;;;;3.45;1.70;;;;;;;;;;5131053;28;20204;-64
2021/03/14 04:22:38;;;;;;;2.65;1.60;;;;;;;;;;5129246;28;20571;-64
2021/03/14 04:25:07;;;;;;;1.73;1.63;;;;;;;;;;5116124;28;20722;-64
2021/03/14 04:27:34;;;;;;;2.15;1.70;;;;;;;;;;5117188;28;20216;-64
2021/03/14 04:30:01;;;;;;;2.65;1.95;;;;;;;;;;5120047;28;20200;-64
2021/03/14 04:32:28;;;;;;;7.03;2.72;;;;;;;;;;5121305;28;20196;-64
2021/03/14 04:34:55;;;;;;;3.45;1.90;;;;;;;;;;5122426;28;20223;-64
2021/03/14 04:37:22;;;;;;;2.63;2.03;;;;;;;;;;5122577;28;20253;-64
2021/03/14 04:39:49;;;;;;;4.90;1.80;;;;;;;;;;5122702;28;20225;-64
2021/03/14 04:42:17;;;;;;;3.90;2.20;;;;;;;;;;5118380;28;20211;-66
2021/03/14 04:44:44;;;;;;;2.95;1.80;;;;;;;;;;5123305;28;20220;-65
2021/03/14 04:47:11;;;;;;;2.90;1.63;;;;;;;;;;5125052;28;20215;-64
2021/03/14 04:49:38;;;;;;;3.75;1.70;;;;;;;;;;5125626;28;20200;-64
2021/03/14 04:52:06;;;;;;;3.78;2.10;;;;;;;;;;5126922;28;20216;-64
2021/03/14 04:54:33;;;;;;;2.20;1.88;;;;;;;;;;5125003;28;20348;-64
2021/03/14 04:57:00;;;;;;;3.33;2.22;;;;;;;;;;5125138;28;20200;-64
2021/03/14 04:59:30;;;;;;;5.50;2.22;;;;;;;;;;5124829;28;20207;-64
2021/03/14 05:01:57;;;;;;;4.05;2.70;;;;;;;;;;5120890;28;20191;-63
2021/03/14 05:04:25;;;;;;;4.50;3.17;;;;;;;;;;5116472;28;20231;-64
2021/03/14 05:06:52;;;;;;;13.25;2.97;;;;;;;;;;5122660;28;20250;-63
2021/03/14 05:09:19;;;;;;;2.85;2.00;;;;;;;;;;5124808;28;20694;-64
2021/03/14 05:11:47;;;;;;;9.25;3.25;;;;;;;;;;5122396;28;20196;-64
2021/03/14 05:14:14;;;;;;;4.00;2.65;;;;;;;;;;5125616;28;20219;-65
2021/03/14 05:16:43;;;;;;;3.05;2.42;;;;;;;;;;5125414;28;20199;-65
2021/03/14 05:19:10;;;;;;;5.88;2.65;;;;;;;;;;5114243;28;20224;-63
2021/03/14 05:21:37;;;;;;;6.00;2.10;;;;;;;;;;5112925;28;20196;-63
2021/03/14 05:24:04;;;;;;;4.10;3.47;;;;;;;;;;5105578;28;20220;-64
2021/03/14 05:26:32;;;;;;;4.80;2.15;;;;;;;;;;5104838;28;20711;-64
2021/03/14 05:28:59;;;;;;;7.30;3.47;;;;;;;;;;5108404;28;20690;-64
2021/03/14 05:31:30;;;;;;;7.53;2.85;;;;;;;;;;5108460;28;20197;-64
2021/03/14 05:33:58;;;;;;;3.95;2.88;;;;;;;;;;5109488;28;20220;-63
2021/03/14 05:36:26;;;;;;;4.60;2.63;;;;;;;;;;5106640;28;20199;-64
2021/03/14 05:38:53;;;;;;;8.05;3.53;;;;;;;;;;5098944;28;20200;-64
2021/03/14 05:41:20;;;;;;;9.02;3.33;;;;;;;;;;5098602;28;20204;-64
2021/03/14 05:43:47;;;;;;;12.27;4.05;;;;;;;;;;5098529;28;20224;-64
2021/03/14 05:46:14;;;;;;;5.45;3.63;;;;;;;;;;5098716;28;20260;-63
2021/03/14 05:48:42;;;;;;;7.05;3.50;;;;;;;;;;5099244;28;20200;-63
2021/03/14 05:51:10;;;;;;;13.60;3.75;;;;;;;;;;5099441;28;20200;-63
2021/03/14 05:53:40;;;;;;;6.72;2.92;;;;;;;;;;5098846;28;20645;-63
2021/03/14 05:56:07;;;;;;;12.98;4.00;;;;;;;;;;5097523;28;20254;-63
2021/03/14 05:58:36;;;;;;;10.52;3.83;;;;;;;;;;5100719;28;20204;-63
2021/03/14 06:01:07;;;;;;;12.23;4.88;;;;;;;;;;5099486;28;20211;-63
2021/03/14 06:03:34;;;;;;;8.77;3.67;;;;;;;;;;5097543;28;20708;-64
2021/03/14 06:06:00;;;;;;;11.90;4.85;;;;;;;;;;5097861;28;20317;-63
2021/03/14 06:08:28;;;;;;;18.13;4.97;;;;;;;;;;5097451;28;20605;-62
2021/03/14 06:10:55;;;;;;;7.75;4.10;;;;;;;;;;5097933;28;20664;-63
2021/03/14 06:13:22;;;;;;;9.15;5.25;;;;;;;;;;5097945;28;20270;-64
2021/03/14 06:15:49;;;;;;;13.60;4.50;;;;;;;;;;5099223;28;20204;-63
2021/03/14 06:18:15;;;;;;;20.60;5.28;;;;;;;;;;5098356;28;20211;-63
2021/03/14 06:20:43;;;;;;;6.30;4.20;;;;;;;;;;5098139;28;20199;-64
2021/03/14 06:23:11;;;;;;;10.45;4.78;;;;;;;;;;5097723;28;20200;-64
2021/03/14 06:25:39;;;;;;;10.93;4.75;;;;;;;;;;5099431;28;20207;-63
2021/03/14 06:28:06;;;;;;;11.63;4.50;;;;;;;;;;5101304;28;20200;-63
2021/03/14 06:30:34;;;;;;;12.18;5.90;;;;;;;;;;5098603;28;20258;-64
2021/03/14 06:33:01;;;;;;;12.52;4.47;;;;;;;;;;5098400;28;20729;-64
2021/03/14 06:35:37;;;;;;;9.02;4.18;;;;;;;;;;5098085;28;20226;-63
2021/03/14 06:38:17;;;;;;;11.20;4.95;;;;;;;;;;5096864;28;20192;-64
2021/03/14 06:40:44;;;;;;;10.55;4.72;;;;;;;;;;5096099;28;20640;-64
2021/03/14 06:43:12;;;;;;;8.18;4.40;;;;;;;;;;5095919;28;20741;-64
2021/03/14 06:45:39;;;;;;;7.68;4.60;;;;;;;;;;5096328;28;20204;-64
2021/03/14 06:48:07;;;;;;;10.02;5.05;;;;;;;;;;5096467;28;20291;-63
2021/03/14 06:50:39;;;;;;;12.65;4.65;;;;;;;;;;5096814;28;20208;-64
2021/03/14 06:53:07;;;;;;;12.98;4.57;;;;;;;;;;5097019;28;20200;-64
2021/03/14 06:55:34;;;;;;;14.38;4.60;;;;;;;;;;5096674;28;20229;-64
2021/03/14 06:58:15;;;;;;;11.05;4.28;;;;;;;;;;5095881;28;20193;-64
2021/03/14 07:00:43;;;;;;;14.27;5.50;;;;;;;;;;5095752;28;20234;-64
2021/03/14 07:03:23;;;;;;;9.30;4.80;;;;;;;;;;5095611;28;20200;-65
2021/03/14 07:05:50;;;;;;;10.93;4.63;;;;;;;;;;5095335;28;20219;-63
2021/03/14 07:08:27;;;;;;;9.43;4.50;;;;;;;;;;5095530;28;20188;-63
2021/03/14 07:10:53;;;;;;;12.68;4.30;;;;;;;;;;5095528;28;20207;-63
2021/03/14 07:13:20;;;;;;;11.18;5.10;;;;;;;;;;5094897;28;20204;-66
2021/03/14 07:15:51;;;;;;;10.43;4.60;;;;;;;;;;5095347;28;20344;-64
2021/03/14 07:18:17;;;;;;;11.65;4.65;;;;;;;;;;5094734;28;20184;-64
2021/03/14 07:20:44;;;;;;;15.13;5.93;;;;;;;;;;5095992;28;20303;-64
2021/03/14 07:23:13;;;;;;;8.35;5.22;;;;;;;;;;5102608;28;20204;-64
2021/03/14 07:25:41;;;;;;;8.35;5.60;;;;;;;;;;5099053;28;20212;-64
2021/03/14 07:28:08;;;;;;;10.18;4.53;;;;;;;;;;5096462;28;20208;-63
2021/03/14 07:30:35;;;;;;;17.55;5.07;;;;;;;;;;5098036;28;20204;-64
2021/03/14 07:33:03;;;;;;;7.82;5.28;;;;;;;;;;5096117;28;20257;-63
2021/03/14 07:35:29;;;;;;;7.68;4.70;;;;;;;;;;5095230;28;20224;-64
2021/03/14 07:37:57;;;;;;;13.52;6.43;;;;;;;;;;5096113;28;20204;-63
2021/03/14 07:40:25;;;;;;;14.15;6.40;;;;;;;;;;5095927;28;20200;-64
2021/03/14 07:42:55;;;;;;;10.23;5.15;;;;;;;;;;5094899;28;20235;-64
2021/03/14 07:45:22;;;;;;;10.68;4.22;;;;;;;;;;5095062;28;20246;-63
2021/03/14 07:47:50;;;;;;;7.35;5.65;;;;;;;;;;5094706;28;20216;-62
2021/03/14 07:50:20;;;;;;;6.90;4.35;;;;;;;;;;5094360;28;20571;-62
2021/03/14 07:52:48;;;;;;;10.48;5.60;;;;;;;;;;5094174;28;20184;-62
2021/03/14 07:55:15;;;;;;;9.43;5.55;;;;;;;;;;5094590;28;20220;-64
2021/03/14 07:57:43;;;;;;;6.03;4.47;;;;;;;;;;5094230;28;20207;-63
2021/03/14 08:00:25;;;;;;;9.73;5.78;;;;;;;;;;5094197;28;20200;-64
2021/03/14 08:02:53;;;;;;;9.70;4.43;;;;;;;;;;5093725;28;20640;-63
2021/03/14 08:05:40;;;;;;;9.23;4.70;;;;;;;;;;5093806;28;20226;-63
2021/03/14 08:08:07;;;;;;;9.48;4.60;;;;;;;;;;5093625;28;20672;-62
2021/03/14 08:10:38;;;;;;;6.80;3.95;;;;;;;;;;5094940;28;20201;-63
2021/03/14 08:13:06;;;;;;;9.80;3.90;;;;;;;;;;5094528;28;20189;-61
2021/03/14 08:15:33;;;;;;;6.47;4.60;;;;;;;;;;5094412;28;20277;-65
2021/03/14 08:18:01;;;;;;;8.98;4.60;;;;;;;;;;5097488;28;20192;-66
2021/03/14 08:20:43;;;;;;;10.40;4.70;;;;;;;;;;5099770;28;20203;-66
2021/03/14 08:23:10;;;;;;;5.85;3.80;;;;;;;;;;5097227;28;20200;-65
2021/03/14 08:25:39;;;;;;;7.25;4.50;;;;;;;;;;5101852;28;20196;-64
2021/03/14 08:28:24;;;;;;;9.57;5.63;;;;;;;;;;5102550;28;20216;-67
2021/03/14 08:30:51;;;;;;;7.05;4.35;;;;;;;;;;5102196;28;20274;-65
2021/03/14 08:33:25;;;;;;;7.65;4.03;;;;;;;;;;5099476;28;20250;-64
2021/03/14 08:35:54;;;;;;;6.50;3.85;;;;;;;;;;5100440;28;20633;-66
2021/03/14 08:38:24;;;;;;;5.90;4.03;;;;;;;;;;5100440;28;20269;-64
2021/03/14 08:40:51;;;;;;;6.00;3.15;;;;;;;;;;5098309;28;20216;-62
2021/03/14 08:43:40;;;;;;;7.05;3.55;;;;;;;;;;5095834;28;20222;-65
2021/03/14 08:46:07;;;;;;;5.57;3.40;;;;;;;;;;5094934;28;20185;-63
2021/03/14 08:48:34;;;;;;;9.20;4.60;;;;;;;;;;5095191;28;20200;-64
2021/03/14 08:51:02;;;;;;;11.45;3.58;;;;;;;;;;5095200;28;20208;-63
2021/03/14 08:53:29;;;;;;;6.45;3.25;;;;;;;;;;5098910;28;20226;-66
2021/03/14 08:55:56;;;;;;;6.90;3.35;;;;;;;;;;5101209;28;20200;-68
2021/03/14 08:58:23;;;;;;;4.18;2.90;;;;;;;;;;5103990;28;20196;-64
2021/03/14 09:01:01;;;;;;;4.35;2.95;;;;;;;;;;5110143;28;20200;-63
2021/03/14 09:03:28;;;;;;;5.32;2.90;;;;;;;;;;5098558;28;20224;-64
2021/03/14 09:06:24;;;;;;;8.05;3.72;;;;;;;;;;5097699;28;20669;-64
2021/03/14 09:08:58;;;;;;;6.68;3.42;;;;;;;;;;5097517;28;20207;-68
2021/03/14 09:11:41;;;;;;;4.95;3.38;;;;;;;;;;5098056;28;20565;-63
2021/03/14 09:14:23;;;;;;;3.40;3.08;;;;;;;;;;5098646;28;20224;-62
2021/03/14 09:16:51;;;;;;;4.15;2.85;;;;;;;;;;5098261;28;20188;-65
2021/03/14 09:19:28;;;;;;;8.55;3.65;;;;;;;;;;5098440;28;20204;-62
2021/03/14 09:21:57;;;;;;;5.63;3.28;;;;;;;;;;5097558;28;20563;-63
2021/03/14 09:24:25;;;;;;;4.28;2.90;;;;;;;;;;5097822;28;20224;-62
2021/03/14 09:26:56;;;;;;;5.13;3.40;;;;;;;;;;5098145;28;20220;-63
2021/03/14 09:29:43;;;;;;;7.63;3.70;;;;;;;;;;5097694;28;20213;-64
2021/03/14 09:32:20;;;;;;;8.45;3.30;;;;;;;;;;5097529;28;20204;-63
2021/03/14 09:34:47;;;;;;;2.97;2.40;;;;;;;;;;5097631;28;20230;-63
2021/03/14 09:37:27;;;;;;;4.88;3.40;;;;;;;;;;5097745;28;20204;-64
2021/03/14 09:40:12;;;;;;;6.32;3.28;;;;;;;;;;5098178;28;20239;-65
2021/03/14 09:42:39;;;;;;;7.72;3.38;;;;;;;;;;5098341;28;20222;-65
2021/03/14 09:45:08;;;;;;;4.78;3.25;;;;;;;;;;5097969;28;20227;-62
2021/03/14 09:47:34;;;;;;;5.05;3.03;;;;;;;;;;5098144;28;20216;-64
2021/03/14 09:50:02;;;;;;;6.40;2.92;;;;;;;;;;5098115;28;20204;-63
2021/03/14 09:52:29;;;;;;;7.38;2.50;;;;;;;;;;5097864;28;20208;-64
2021/03/14 09:54:56;;;;;;;3.78;2.50;;;;;;;;;;5097556;28;20274;-65
2021/03/14 09:57:23;;;;;;;4.78;2.60;;;;;;;;;;5097339;28;20196;-65
2021/03/14 09:59:50;;;;;;;7.07;2.20;;;;;;;;;;5097307;28;20579;-60
2021/03/14 10:02:17;;;;;;;7.65;3.03;;;;;;;;;;5096581;28;20197;-62
2021/03/14 10:04:45;;;;;;;5.25;2.83;;;;;;;;;;5095913;28;20257;-63
2021/03/14 10:07:20;;;;;;;4.15;2.53;;;;;;;;;;5096169;28;20631;-62
2021/03/14 10:09:48;;;;;;;4.80;2.58;;;;;;;;;;5096221;28;20195;-63
2021/03/14 10:12:15;;;;;;;3.47;2.40;;;;;;;;;;5095922;28;20676;-61
2021/03/14 10:14:42;;;;;;;6.30;2.50;;;;;;;;;;5096070;28;20225;-63
2021/03/14 10:17:11;;;;;;;3.65;2.30;;;;;;;;;;5096180;28;20200;-63
2021/03/14 10:19:38;;;;;;;7.35;3.10;;;;;;;;;;5095930;28;20204;-63
2021/03/14 10:22:04;;;;;;;3.10;2.38;;;;;;;;;;5103218;28;20196;-63
2021/03/14 10:24:32;;;;;;;2.95;2.03;;;;;;;;;;5104865;28;20224;-63
2021/03/14 10:27:00;;;;;;;4.38;2.33;;;;;;;;;;5103206;28;20224;-62
2021/03/14 10:29:31;;;;;;;3.03;1.90;;;;;;;;;;5099163;28;20201;-63
2021/03/14 10:31:58;;;;;;;5.88;2.33;;;;;;;;;;5095841;28;20250;-62
2021/03/14 10:34:25;;;;;;;3.90;3.00;;;;;;;;;;5096072;28;20224;-63
2021/03/14 10:36:53;;;;;;;8.88;2.30;;;;;;;;;;5098423;28;20303;-63
2021/03/14 10:39:27;;;;;;;6.00;2.83;;;;;;;;;;5095967;28;20737;-62
2021/03/14 10:41:53;;;;;;;4.68;2.30;;;;;;;;;;5095899;28;20218;-63
2021/03/14 10:44:22;;;;;;;6.72;3.00;;;;;;;;;;5096105;28;20566;-61
2021/03/14 10:46:51;;;;;;;2.90;2.42;;;;;;;;;;5096057;28;20696;-61
2021/03/14 10:49:18;;;;;;;6.93;2.25;;;;;;;;;;5097010;28;20261;-62
2021/03/14 10:51:49;;;;;;;4.10;2.85;;;;;;;;;;5097680;28;20216;-61
2021/03/14 10:54:16;;;;;;;6.05;2.92;;;;;;;;;;5099120;28;20224;-62
2021/03/14 10:56:45;;;;;;;6.80;3.13;;;;;;;;;;5102883;28;20595;-62
2021/03/14 10:59:23;;;;;;;3.78;3.15;;;;;;;;;;5096032;28;20627;-62
2021/03/14 11:01:53;;;;;;;8.18;2.90;;;;;;;;;;5097949;28;20227;-62
2021/03/14 11:04:26;;;;;;;6.30;3.10;;;;;;;;;;5096030;28;20220;-63
2021/03/14 11:06:53;;;;;;;4.95;3.00;;;;;;;;;;5096069;28;20595;-61
2021/03/14 11:09:20;;;;;;;3.70;2.60;;;;;;;;;;5094849;28;20201;-62
2021/03/14 11:11:47;;;;;;;7.70;3.22;;;;;;;;;;5094687;28;20249;-61
2021/03/14 11:14:28;;;;;;;5.57;2.72;;;;;;;;;;5094904;28;20220;-63
2021/03/14 11:17:08;;;;;;;3.72;2.75;;;;;;;;;;5093916;28;20204;-62
2021/03/14 11:19:35;;;;;;;4.13;2.75;;;;;;;;;;5094199;28;20204;-62
2021/03/14 11:22:02;;;;;;;4.03;2.63;;;;;;;;;;5094895;28;20615;-62
2021/03/14 11:24:29;;;;;;;5.22;2.72;;;;;;;;;;5094148;28;20220;-63
2021/03/14 11:26:55;;;;;;;4.70;2.53;;;;;;;;;;5094148;28;20224;-62
2021/03/14 11:29:22;;;;;;;3.28;2.05;;;;;;;;;;5094616;28;20200;-62
2021/03/14 11:31:50;;;;;;;3.35;1.98;;;;;;;;;;5094497;28;20200;-63
2021/03/14 11:34:17;;;;;;;5.10;3.33;;;;;;;;;;5094134;28;20224;-62
2021/03/14 11:36:43;;;;;;;6.30;4.47;;;;;;;;;;5095170;28;20313;-63
2021/03/14 11:39:10;;;;;;;4.50;2.70;;;;;;;;;;5094655;28;20200;-62
2021/03/14 11:41:37;;;;;;;3.28;2.10;;;;;;;;;;5095913;28;20200;-63
2021/03/14 11:44:04;;;;;;;4.85;2.20;;;;;;;;;;5095599;28;20235;-63
2021/03/14 11:46:31;;;;;;;4.35;2.42;;;;;;;;;;5098211;28;20217;-62
2021/03/14 11:48:58;;;;;;;5.00;2.42;;;;;;;;;;5097673;28;20660;-62
2021/03/14 11:51:25;;;;;;;3.55;2.00;;;;;;;;;;5098157;28;20254;-63
2021/03/14 11:53:52;;;;;;;3.10;2.10;;;;;;;;;;5097941;28;20283;-61
2021/03/14 11:56:19;;;;;;;4.93;2.50;;;;;;;;;;5097218;28;20250;-62
2021/03/14 11:58:46;;;;;;;5.60;2.88;;;;;;;;;;5096017;28;20227;-62
2021/03/14 12:01:12;;;;;;;5.55;2.17;;;;;;;;;;5095651;28;20200;-62
2021/03/14 12:03:39;;;;;;;5.82;2.30;;;;;;;;;;5098459;28;20254;-62
2021/03/14 12:06:07;;;;;;;3.58;2.45;;;;;;;;;;5098077;28;20219;-62
2021/03/14 12:08:34;;;;;;;3.97;2.60;;;;;;;;;;5097642;28;20208;-63
2021/03/14 12:11:03;;;;;;;3.95;2.80;;;;;;;;;;5098456;28;20207;-62
2021/03/14 12:13:30;;;;;;;5.30;2.60;;;;;;;;;;5096631;28;20220;-62
2021/03/14 12:15:56;;;;;;;9.18;2.90;;;;;;;;;;5096643;28;20211;-62
2021/03/14 12:18:23;;;;;;;6.88;2.30;;;;;;;;;;5095266;28;20193;-62
2021/03/14 12:20:50;;;;;;;4.38;2.80;;;;;;;;;;5095225;28;20254;-64
2021/03/14 12:23:18;;;;;;;6.15;3.85;;;;;;;;;;5095185;28;20211;-62
2021/03/14 12:25:45;;;;;;;5.78;2.35;;;;;;;;;;5093226;28;20258;-62
2021/03/14 12:28:12;;;;;;;3.83;2.63;;;;;;;;;;5095180;28;20224;-63
2021/03/14 12:30:38;;;;;;;4.78;2.38;;;;;;;;;;5098694;28;20207;-62
2021/03/14 12:33:05;;;;;;;2.60;2.30;;;;;;;;;;5101726;28;20645;-63
2021/03/14 12:35:32;;;;;;;4.72;2.45;;;;;;;;;;5099570;28;20724;-63
2021/03/14 12:37:59;;;;;;;3.13;1.88;;;;;;;;;;5097570;28;20645;-63
2021/03/14 12:40:27;;;;;;;3.35;2.42;;;;;;;;;;5098644;28;20212;-62
2021/03/14 12:42:53;;;;;;;6.22;3.03;;;;;;;;;;5097585;28;20729;-61
2021/03/14 12:45:22;;;;;;;4.78;2.22;;;;;;;;;;5099125;28;20592;-62
2021/03/14 12:47:48;;;;;;;4.00;1.80;;;;;;;;;;5098446;28;20244;-62
2021/03/14 12:50:15;;;;;;;5.43;2.17;;;;;;;;;;5097462;28;20554;-61
2021/03/14 12:52:42;;;;;;;3.40;1.88;;;;;;;;;;5103736;28;20219;-63
2021/03/14 12:55:09;;;;;;;6.32;2.22;;;;;;;;;;5112386;28;20593;-62
2021/03/14 12:57:38;;;;;;;4.47;2.20;;;;;;;;;;5097362;28;20201;-63
2021/03/14 13:00:06;;;;;;;2.00;1.73;;;;;;;;;;5096762;28;20227;-64
2021/03/14 13:02:33;;;;;;;7.38;2.95;;;;;;;;;;5097057;28;20694;-62
2021/03/14 13:05:00;;;;;;;3.92;2.38;;;;;;;;;;5097246;28;20250;-62
2021/03/14 13:07:27;;;;;;;3.03;2.50;;;;;;;;;;5098658;28;20307;-62
2021/03/14 13:09:54;;;;;;;5.18;3.20;;;;;;;;;;5102762;28;20208;-63
2021/03/14 13:12:21;;;;;;;3.22;2.10;;;;;;;;;;5102761;28;20200;-62
2021/03/14 13:14:48;;;;;;;5.18;2.35;;;;;;;;;;5105419;28;20216;-63
2021/03/14 13:17:15;;;;;;;3.72;2.60;;;;;;;;;;5105659;28;20197;-64
2021/03/14 13:19:42;;;;;;;3.58;2.45;;;;;;;;;;5109513;28;20203;-63
2021/03/14 13:22:09;;;;;;;4.38;3.13;;;;;;;;;;5101871;28;20200;-63
2021/03/14 13:24:36;;;;;;;3.60;2.60;;;;;;;;;;5112309;28;20220;-63
2021/03/14 13:27:02;;;;;;;5.50;2.83;;;;;;;;;;5104451;28;20220;-62
2021/03/14 13:29:29;;;;;;;3.42;2.50;;;;;;;;;;5100071;28;20204;-62
2021/03/14 13:31:57;;;;;;;5.35;2.92;;;;;;;;;;5098968;28;20201;-61
2021/03/14 13:34:23;;;;;;;6.30;2.55;;;;;;;;;;5096650;28;20216;-62
2021/03/14 13:36:50;;;;;;;3.95;2.67;;;;;;;;;;5096744;28;20197;-62
2021/03/14 13:39:17;;;;;;;4.28;2.83;;;;;;;;;;5098895;28;20211;-62
2021/03/14 13:41:44;;;;;;;3.40;2.83;;;;;;;;;;5096647;28;20224;-63
2021/03/14 13:44:11;;;;;;;4.75;2.70;;;;;;;;;;5096575;28;20273;-63
2021/03/14 13:46:38;;;;;;;2.60;2.40;;;;;;;;;;5096627;28;20224;-63
2021/03/14 13:49:05;;;;;;;5.82;2.13;;;;;;;;;;5096560;28;20208;-63
2021/03/14 13:51:32;;;;;;;3.70;2.00;;;;;;;;;;5096123;28;20204;-64
2021/03/14 13:53:59;;;;;;;4.07;2.35;;;;;;;;;;5096328;28;20217;-62
2021/03/14 13:56:25;;;;;;;9.25;2.90;;;;;;;;;;5096726;28;20200;-62
2021/03/14 13:58:52;;;;;;;3.33;2.47;;;;;;;;;;5096226;28;20238;-62
2021/03/14 14:01:19;;;;;;;3.45;2.20;;;;;;;;;;5095808;28;20211;-64
2021/03/14 14:03:46;;;;;;;2.97;2.45;;;;;;;;;;5096124;28;20220;-62
2021/03/14 14:06:13;;;;;;;2.33;2.10;;;;;;;;;;5095611;28;20216;-63
2021/03/14 14:08:40;;;;;;;3.55;2.13;;;;;;;;;;5095842;28;20302;-64
2021/03/14 14:11:07;;;;;;;3.40;2.40;;;;;;;;;;5095860;28;20207;-63
2021/03/14 14:13:34;;;;;;;3.35;2.22;;;;;;;;;;5095676;28;20220;-63
2021/03/14 14:16:00;;;;;;;3.60;2.60;;;;;;;;;;5095832;28;20200;-63
2021/03/14 14:18:28;;;;;;;4.82;2.60;;;;;;;;;;5095374;28;20214;-62
2021/03/14 14:20:56;;;;;;;3.25;2.40;;;;;;;;;;5095766;28;20204;-63
2021/03/14 14:23:24;;;;;;;2.10;1.83;;;;;;;;;;5095537;28;20204;-63
2021/03/14 14:25:50;;;;;;;4.38;2.47;;;;;;;;;;5095577;28;20617;-62
2021/03/14 14:28:17;;;;;;;4.40;2.45;;;;;;;;;;5095480;28;20220;-63
2021/03/14 14:30:44;;;;;;;4.18;2.38;;;;;;;;;;5095472;28;20204;-62
2021/03/14 14:33:11;;;;;;;4.50;2.60;;;;;;;;;;5095156;28;20196;-63
2021/03/14 14:35:38;;;;;;;5.05;2.63;;;;;;;;;;5095447;28;20200;-63
2021/03/14 14:38:04;;;;;;;3.97;2.65;;;;;;;;;;5095194;28;20204;-64
2021/03/14 14:40:32;;;;;;;3.28;2.50;;;;;;;;;;5095227;28;20200;-63
2021/03/14 14:42:59;;;;;;;6.18;3.08;;;;;;;;;;5095773;28;20250;-63
2021/03/14 14:45:26;;;;;;;5.10;2.80;;;;;;;;;;5097691;28;20220;-62
2021/03/14 14:47:53;;;;;;;4.70;2.60;;;;;;;;;;5095802;28;20513;-62
2021/03/14 14:50:20;;;;;;;9.10;3.37;;;;;;;;;;5094826;28;20458;-64